Time;durP1;ratioP1;P1;durP2;ratioP2;P2;SDS_P1;SDS_P2;PMS_P1;PMS_P2;Temp;Humidity;BMP_temperature;BMP_pressure;BME280_temperature;BME280_humidity;BME280_pressure;Samples;Min_cycle;Max_cycle;Signal;HPM_P1;HPM_P2
2022/02/28 00:01:04;;;;;;;10.10;7.20;;;;;;;-1.90;100.00;98456.78;4958994;28;20937;-48
2022/02/28 00:03:33;;;;;;;8.43;7.63;;;;;;;-2.02;100.00;98452.19;4965335;28;20217;-53
2022/02/28 00:06:01;;;;;;;8.23;7.37;;;;;;;-2.00;100.00;98455.56;4963821;28;20343;-54
2022/02/28 00:08:31;;;;;;;8.50;7.67;;;;;;;-1.93;100.00;98453.53;4922541;28;20221;-53
2022/02/28 00:10:59;;;;;;;11.37;7.90;;;;;;;-1.92;100.00;98450.00;4963104;28;20228;-55
2022/02/28 00:13:29;;;;;;;8.30;7.30;;;;;;;-2.15;100.00;98454.53;4947946;28;20210;-54
2022/02/28 00:15:57;;;;;;;8.00;7.20;;;;;;;-2.27;100.00;98453.38;4959461;28;20237;-49
2022/02/28 00:18:26;;;;;;;8.67;7.60;;;;;;;-2.34;100.00;98446.75;4966107;28;21027;-54
2022/02/28 00:20:54;;;;;;;8.23;7.40;;;;;;;-2.74;100.00;98451.19;4964367;28;20294;-48
2022/02/28 00:23:22;;;;;;;9.30;6.57;;;;;;;-2.84;100.00;98455.94;4929340;28;20224;-53
2022/02/28 00:25:52;;;;;;;7.43;6.70;;;;;;;-3.01;100.00;98447.16;4961510;28;20222;-50
2022/02/28 00:28:20;;;;;;;10.97;8.17;;;;;;;-3.06;100.00;98446.53;4968584;28;20692;-57
2022/02/28 00:30:49;;;;;;;7.77;7.07;;;;;;;-3.17;100.00;98446.16;4942586;28;20319;-49
2022/02/28 00:33:17;;;;;;;8.13;7.33;;;;;;;-3.46;100.00;98441.28;4966570;28;20641;-50
2022/02/28 00:35:45;;;;;;;8.70;7.87;;;;;;;-3.38;100.00;98449.59;4960771;28;21100;-48
2022/02/28 00:38:13;;;;;;;7.87;7.07;;;;;;;-3.47;100.00;98443.97;4968480;28;20479;-54
2022/02/28 00:40:42;;;;;;;8.63;7.73;;;;;;;-3.43;100.00;98442.91;4925538;28;20854;-54
2022/02/28 00:43:11;;;;;;;8.27;7.20;;;;;;;-3.59;100.00;98446.16;4964294;28;20202;-51
2022/02/28 00:45:39;;;;;;;10.50;6.83;;;;;;;-3.62;100.00;98438.50;4947123;28;20230;-54
2022/02/28 00:48:08;;;;;;;8.67;7.57;;;;;;;-3.39;100.00;98447.06;4964365;28;20677;-55
2022/02/28 00:50:36;;;;;;;8.57;7.67;;;;;;;-3.53;100.00;98445.91;4965547;28;20480;-56
2022/02/28 00:53:05;;;;;;;9.20;7.17;;;;;;;-3.60;100.00;98438.44;4961627;28;20465;-53
2022/02/28 00:55:33;;;;;;;9.63;7.70;;;;;;;-3.59;100.00;98438.41;4925243;28;20238;-52
2022/02/28 00:58:01;;;;;;;11.00;7.57;;;;;;;-3.60;100.00;98435.84;4962394;28;20998;-50
2022/02/28 01:00:31;;;;;;;7.47;6.83;;;;;;;-3.59;100.00;98424.59;4947529;28;20465;-56
2022/02/28 01:02:59;;;;;;;11.87;7.97;;;;;;;-3.61;100.00;98428.97;4968202;28;20414;-50
2022/02/28 01:05:28;;;;;;;9.63;7.60;;;;;;;-3.68;100.00;98428.38;4965251;28;21016;-53
2022/02/28 01:07:56;;;;;;;8.60;7.43;;;;;;;-3.69;100.00;98424.13;4963169;28;20521;-56
2022/02/28 01:10:25;;;;;;;8.43;7.17;;;;;;;-3.51;100.00;98420.78;4969950;28;20225;-54
2022/02/28 01:12:54;;;;;;;10.87;7.87;;;;;;;-3.51;100.00;98418.19;4929399;28;20844;-49
2022/02/28 01:15:23;;;;;;;10.50;7.80;;;;;;;-3.42;100.00;98405.72;4949283;28;20708;-50
2022/02/28 01:17:53;;;;;;;8.27;6.93;;;;;;;-3.36;100.00;98408.06;4963790;28;20577;-52
2022/02/28 01:20:21;;;;;;;10.27;7.67;;;;;;;-3.37;100.00;98411.56;4967723;28;20467;-50
2022/02/28 01:22:50;;;;;;;10.37;7.93;;;;;;;-3.39;100.00;98411.63;4963653;28;20207;-50
2022/02/28 01:25:19;;;;;;;11.20;8.17;;;;;;;-3.46;100.00;98417.13;4966919;28;20664;-50
2022/02/28 01:27:47;;;;;;;9.27;7.10;;;;;;;-3.48;100.00;98417.19;4924667;28;21173;-47
2022/02/28 01:30:15;;;;;;;8.33;7.50;;;;;;;-3.54;100.00;98417.44;4949064;28;20388;-48
2022/02/28 01:32:44;;;;;;;8.50;7.67;;;;;;;-3.61;100.00;98424.63;4966226;28;20461;-58
2022/02/28 01:35:14;;;;;;;8.50;7.70;;;;;;;-3.63;100.00;98413.50;4969287;28;21054;-50
2022/02/28 01:37:42;;;;;;;8.37;7.50;;;;;;;-3.70;100.00;98409.47;4964564;28;20202;-49
2022/02/28 01:40:13;;;;;;;9.43;7.63;;;;;;;-3.47;100.00;98413.69;4972181;28;20831;-47
2022/02/28 01:42:42;;;;;;;8.50;7.17;;;;;;;-3.47;100.00;98420.63;4925691;28;20469;-52
2022/02/28 01:45:12;;;;;;;7.97;7.37;;;;;;;-3.59;100.00;98412.47;4965694;28;20487;-51
2022/02/28 01:47:41;;;;;;;9.10;7.87;;;;;;;-3.53;100.00;98409.63;4948267;28;21307;-49
2022/02/28 01:50:10;;;;;;;8.00;7.20;;;;;;;-3.50;100.00;98421.59;4971366;28;21031;-53
2022/02/28 01:52:41;;;;;;;8.50;7.60;;;;;;;-3.55;100.00;98423.53;4964741;28;20461;-50
2022/02/28 01:55:10;;;;;;;9.20;7.87;;;;;;;-3.58;100.00;98424.53;4971940;28;21122;-51
2022/02/28 01:57:40;;;;;;;8.33;7.53;;;;;;;-3.67;100.00;98414.53;4932864;28;20210;-52
2022/02/28 02:00:11;;;;;;;12.63;8.93;;;;;;;-3.71;100.00;98416.44;4964102;28;20512;-52
2022/02/28 02:02:39;;;;;;;8.50;7.27;;;;;;;-3.69;100.00;98418.94;4951124;28;20556;-51
2022/02/28 02:05:08;;;;;;;9.70;7.23;;;;;;;-3.71;100.00;98420.75;4970452;28;20273;-52
2022/02/28 02:07:36;;;;;;;8.83;7.90;;;;;;;-3.72;100.00;98416.47;4967993;28;20202;-50
2022/02/28 02:10:08;;;;;;;8.80;7.33;;;;;;;-3.74;100.00;98413.97;4965571;28;20553;-51
2022/02/28 02:12:38;;;;;;;9.03;8.13;;;;;;;-3.94;100.00;98413.03;4966457;28;20588;-50
2022/02/28 02:15:07;;;;;;;8.23;7.43;;;;;;;-4.09;100.00;98413.66;4918894;28;20481;-50
2022/02/28 02:17:36;;;;;;;7.77;7.07;;;;;;;-4.07;100.00;98410.09;4949083;28;20823;-50
2022/02/28 02:20:11;;;;;;;8.50;7.43;;;;;;;-4.02;100.00;98414.22;4969730;28;20460;-49
2022/02/28 02:22:54;;;;;;;8.53;7.73;;;;;;;-3.98;100.00;98410.59;4963872;28;20488;-54
2022/02/28 02:25:23;;;;;;;8.47;7.27;;;;;;;-4.04;100.00;98406.53;4968608;28;20225;-47
2022/02/28 02:27:51;;;;;;;7.37;6.67;;;;;;;-3.97;100.00;98400.19;4962776;28;20457;-52
2022/02/28 02:30:20;;;;;;;8.03;7.27;;;;;;;-3.97;100.00;98407.16;4920437;28;20483;-47
2022/02/28 02:32:49;;;;;;;9.53;8.13;;;;;;;-3.95;100.00;98402.75;4943043;28;20490;-48
2022/02/28 02:35:19;;;;;;;12.40;8.73;;;;;;;-4.07;100.00;98407.50;4967309;28;20579;-47
2022/02/28 02:37:47;;;;;;;9.17;7.83;;;;;;;-3.99;100.00;98408.94;4963071;28;20817;-51
2022/02/28 02:40:15;;;;;;;8.13;7.33;;;;;;;-3.99;100.00;98420.13;4965259;28;20497;-49
2022/02/28 02:42:43;;;;;;;9.00;8.20;;;;;;;-4.04;100.00;98413.44;4963612;28;20548;-52
2022/02/28 02:45:14;;;;;;;8.77;7.83;;;;;;;-4.05;100.00;98409.19;4923688;28;20236;-49
2022/02/28 02:47:42;;;;;;;10.17;8.30;;;;;;;-4.19;100.00;98391.59;4958007;28;23560;-51
2022/02/28 02:50:11;;;;;;;8.70;7.00;;;;;;;-4.14;100.00;98402.66;4949913;28;20477;-51
2022/02/28 02:52:40;;;;;;;8.33;7.63;;;;;;;-4.16;100.00;98401.88;4961868;28;20956;-52
2022/02/28 02:55:09;;;;;;;9.43;7.70;;;;;;;-4.24;100.00;98400.41;4946122;28;20484;-48
2022/02/28 02:57:37;;;;;;;11.07;7.70;;;;;;;-4.30;100.00;98402.41;4965599;28;20809;-54
2022/02/28 03:00:09;;;;;;;9.37;7.80;;;;;;;-4.21;100.00;98404.63;4964677;28;20464;-54
2022/02/28 03:02:37;;;;;;;8.40;7.43;;;;;;;-4.20;100.00;98406.31;4931468;28;20706;-49
2022/02/28 03:05:07;;;;;;;11.07;7.93;;;;;;;-4.29;100.00;98409.28;4947452;28;20488;-56
2022/02/28 03:07:35;;;;;;;9.23;7.53;;;;;;;-4.16;100.00;98407.88;4966353;28;20888;-54
2022/02/28 03:10:05;;;;;;;10.67;9.07;;;;;;;-4.17;100.00;98401.00;4965157;28;20568;-51
2022/02/28 03:12:34;;;;;;;10.97;9.03;;;;;;;-4.28;100.00;98404.03;4966151;28;20830;-50
2022/02/28 03:15:02;;;;;;;8.83;8.03;;;;;;;-4.22;100.00;98403.78;4963581;28;20512;-54
2022/02/28 03:17:30;;;;;;;11.47;8.33;;;;;;;-4.15;100.00;98404.38;4921581;28;21009;-51
2022/02/28 03:19:58;;;;;;;9.63;8.10;;;;;;;-4.19;100.00;98415.75;4966095;28;21915;-52
2022/02/28 03:22:26;;;;;;;10.00;8.30;;;;;;;-4.22;100.00;98408.94;4941299;28;20725;-50
2022/02/28 03:24:54;;;;;;;8.90;8.00;;;;;;;-4.41;100.00;98400.25;4965374;28;20574;-50
2022/02/28 03:27:24;;;;;;;9.53;8.03;;;;;;;-4.47;100.00;98403.91;4964485;28;20552;-52
2022/02/28 03:29:52;;;;;;;12.40;8.57;;;;;;;-4.36;100.00;98409.53;4967819;28;20461;-49
2022/02/28 03:32:20;;;;;;;11.00;8.87;;;;;;;-4.27;100.00;98404.88;4921135;28;20870;-52
2022/02/28 03:34:49;;;;;;;11.07;8.63;;;;;;;-4.29;100.00;98401.50;4964335;28;20535;-53
2022/02/28 03:37:17;;;;;;;9.03;8.07;;;;;;;-4.38;100.00;98397.53;4946999;28;20348;-52
2022/02/28 03:39:45;;;;;;;11.17;9.37;;;;;;;-4.32;100.00;98397.28;4963857;28;20825;-52
2022/02/28 03:42:13;;;;;;;12.97;8.43;;;;;;;-4.24;100.00;98394.41;4964436;28;20548;-52
2022/02/28 03:44:43;;;;;;;8.97;8.03;;;;;;;-4.24;100.00;98400.41;4965585;28;20659;-53
2022/02/28 03:47:11;;;;;;;11.67;8.57;;;;;;;-4.33;100.00;98397.34;4925074;28;20555;-53
2022/02/28 03:49:39;;;;;;;12.67;8.37;;;;;;;-4.43;100.00;98397.69;4956749;28;20457;-58
2022/02/28 03:52:08;;;;;;;10.13;9.07;;;;;;;-4.42;100.00;98391.63;4967213;28;20261;-53
2022/02/28 03:54:45;;;;;;;10.30;9.30;;;;;;;-4.30;100.00;98403.25;4927728;28;21484;-51
2022/02/28 03:57:13;;;;;;;9.83;8.93;;;;;;;-4.47;100.00;98401.31;4961196;28;20718;-53
2022/02/28 03:59:45;;;;;;;9.33;8.00;;;;;;;-4.51;100.00;98400.59;4960774;28;20900;-52
2022/02/28 04:02:13;;;;;;;9.17;7.73;;;;;;;-4.50;100.00;98398.84;4921852;28;20473;-48
2022/02/28 04:04:42;;;;;;;10.93;8.77;;;;;;;-4.45;100.00;98399.50;4961111;28;20574;-51
2022/02/28 04:07:11;;;;;;;9.13;8.23;;;;;;;-4.49;100.00;98399.69;4970788;28;20491;-54
2022/02/28 04:09:39;;;;;;;8.97;7.67;;;;;;;-4.38;100.00;98403.53;4934433;28;20729;-49
2022/02/28 04:12:09;;;;;;;9.77;8.63;;;;;;;-4.43;100.00;98402.03;4965228;28;20540;-49
2022/02/28 04:14:40;;;;;;;9.47;8.47;;;;;;;-4.58;100.00;98406.88;4965542;28;20472;-53
2022/02/28 04:17:10;;;;;;;10.50;8.93;;;;;;;-4.55;100.00;98411.13;4965002;28;20201;-57
2022/02/28 04:19:38;;;;;;;9.07;7.87;;;;;;;-4.54;100.00;98411.06;4912036;28;20485;-50
2022/02/28 04:22:07;;;;;;;9.83;7.57;;;;;;;-4.58;100.00;98413.81;4963586;28;20585;-53
2022/02/28 04:24:35;;;;;;;11.17;8.53;;;;;;;-4.76;100.00;98403.25;4934659;28;20489;-56
2022/02/28 04:27:03;;;;;;;11.30;8.93;;;;;;;-4.70;100.00;98415.13;4965233;28;20841;-51
2022/02/28 04:29:31;;;;;;;10.63;8.33;;;;;;;-4.53;100.00;98406.72;4963162;28;20462;-47
2022/02/28 04:32:00;;;;;;;10.23;8.27;;;;;;;-4.60;100.00;98413.03;4965571;28;20500;-52
2022/02/28 04:34:30;;;;;;;10.17;9.27;;;;;;;-4.68;100.00;98398.66;4914373;28;20910;-51
2022/02/28 04:36:58;;;;;;;8.87;8.07;;;;;;;-4.74;100.00;98413.56;4960947;28;20487;-55
2022/02/28 04:39:26;;;;;;;10.90;8.70;;;;;;;-4.63;100.00;98413.16;4936142;28;20210;-52
2022/02/28 04:41:54;;;;;;;8.27;7.47;;;;;;;-4.64;100.00;98414.88;4965264;28;20565;-53
2022/02/28 04:44:22;;;;;;;10.83;8.20;;;;;;;-4.79;100.00;98411.13;4966752;28;20941;-52
2022/02/28 04:46:50;;;;;;;9.63;8.60;;;;;;;-4.85;100.00;98416.53;4962150;28;20492;-50
2022/02/28 04:49:18;;;;;;;10.63;9.53;;;;;;;-4.75;100.00;98412.69;4911136;28;20831;-50
2022/02/28 04:51:48;;;;;;;11.83;8.63;;;;;;;-4.74;100.00;98411.81;4953387;28;20469;-50
2022/02/28 04:54:16;;;;;;;10.13;9.00;;;;;;;-5.12;100.00;98406.31;4936234;28;20475;-53
2022/02/28 04:56:43;;;;;;;13.33;8.37;;;;;;;-5.25;100.00;98409.34;4962514;28;20725;-52
2022/02/28 04:59:11;;;;;;;12.13;8.53;;;;;;;-5.09;100.00;98411.38;4968134;28;20210;-54
2022/02/28 05:01:39;;;;;;;13.30;9.83;;;;;;;-5.19;100.00;98415.19;4963054;28;20462;-54
2022/02/28 05:04:08;;;;;;;11.80;9.33;;;;;;;-4.96;100.00;98412.63;4915558;28;20477;-48
2022/02/28 05:06:36;;;;;;;11.67;8.73;;;;;;;-4.98;100.00;98414.41;4960392;28;20486;-50
2022/02/28 05:09:05;;;;;;;12.33;9.57;;;;;;;-5.21;100.00;98414.38;4964546;28;20210;-53
2022/02/28 05:11:33;;;;;;;9.53;8.63;;;;;;;-4.97;100.00;98404.91;4936753;28;21008;-49
2022/02/28 05:14:01;;;;;;;8.70;7.50;;;;;;;-4.83;100.00;98417.31;4962249;28;20571;-54
2022/02/28 05:16:29;;;;;;;11.43;8.50;;;;;;;-4.86;100.00;98407.09;4961810;28;21004;-49
2022/02/28 05:18:59;;;;;;;12.00;8.97;;;;;;;-4.89;100.00;98412.38;4919838;28;20492;-50
2022/02/28 05:21:27;;;;;;;12.77;9.00;;;;;;;-4.96;100.00;98410.03;4962249;28;20209;-52
2022/02/28 05:23:55;;;;;;;9.10;8.40;;;;;;;-4.87;100.00;98408.84;4958508;28;20729;-53
2022/02/28 05:26:25;;;;;;;11.77;8.67;;;;;;;-4.74;100.00;98409.22;4940386;28;20492;-52
2022/02/28 05:28:53;;;;;;;10.37;8.83;;;;;;;-4.67;100.00;98415.88;4964230;28;20572;-48
2022/02/28 05:31:21;;;;;;;10.53;9.33;;;;;;;-4.75;100.00;98415.28;4965121;28;20836;-49
2022/02/28 05:33:49;;;;;;;13.13;8.67;;;;;;;-5.03;100.00;98418.06;4912689;28;20563;-46
2022/02/28 05:36:17;;;;;;;8.83;8.03;;;;;;;-4.94;100.00;98412.53;4961875;28;21028;-52
2022/02/28 05:38:45;;;;;;;12.53;9.93;;;;;;;-4.97;100.00;98415.25;4962418;28;20468;-51
2022/02/28 05:41:12;;;;;;;12.17;10.00;;;;;;;-5.17;100.00;98422.00;4934957;28;20854;-51
2022/02/28 05:43:42;;;;;;;12.53;9.63;;;;;;;-5.28;100.00;98424.13;4961637;28;20451;-52
2022/02/28 05:46:11;;;;;;;11.80;9.10;;;;;;;-5.01;100.00;98424.00;4961538;28;20264;-54
2022/02/28 05:48:39;;;;;;;11.57;9.20;;;;;;;-4.98;100.00;98427.34;4918488;28;22272;-51
2022/02/28 05:51:09;;;;;;;10.20;9.17;;;;;;;-5.19;100.00;98422.94;4962581;28;20511;-47
2022/02/28 05:53:37;;;;;;;11.17;9.23;;;;;;;-5.30;100.00;98424.16;4962737;28;20583;-45
2022/02/28 05:56:05;;;;;;;9.37;8.57;;;;;;;-5.21;100.00;98425.59;4964995;28;20912;-56
2022/02/28 05:58:33;;;;;;;9.90;8.93;;;;;;;-5.10;100.00;98427.78;4943388;28;21000;-50
2022/02/28 06:01:03;;;;;;;10.80;9.70;;;;;;;-4.98;100.00;98429.94;4968306;28;20456;-49
2022/02/28 06:03:34;;;;;;;9.77;8.77;;;;;;;-4.89;100.00;98425.31;4934702;28;20522;-51
2022/02/28 06:06:04;;;;;;;9.97;8.23;;;;;;;-4.98;100.00;98424.75;4964197;28;20633;-52
2022/02/28 06:08:33;;;;;;;12.23;9.50;;;;;;;-5.13;100.00;98435.63;4964217;28;20470;-48
2022/02/28 06:11:01;;;;;;;9.60;7.97;;;;;;;-5.01;100.00;98431.78;4941212;28;20465;-49
2022/02/28 06:13:29;;;;;;;12.57;9.47;;;;;;;-5.13;100.00;98439.06;4942823;28;20606;-52
2022/02/28 06:15:57;;;;;;;10.93;9.53;;;;;;;-5.26;100.00;98436.06;4965457;28;20481;-51
2022/02/28 06:18:26;;;;;;;10.03;8.67;;;;;;;-5.41;100.00;98434.88;4963705;28;21193;-51
2022/02/28 06:20:54;;;;;;;10.70;8.73;;;;;;;-5.05;100.00;98433.63;4919764;28;20466;-51
2022/02/28 06:23:22;;;;;;;10.97;9.80;;;;;;;-4.90;100.00;98436.56;4961867;28;20482;-51
2022/02/28 06:25:50;;;;;;;10.87;8.60;;;;;;;-4.90;100.00;98431.38;4974104;28;21024;-49
2022/02/28 06:28:21;;;;;;;8.97;8.07;;;;;;;-4.84;100.00;98431.16;4945648;28;21025;-50
2022/02/28 06:30:49;;;;;;;12.73;10.33;;;;;;;-4.86;100.00;98433.81;4965476;28;20552;-51
2022/02/28 06:33:17;;;;;;;10.00;9.07;;;;;;;-4.95;100.00;98431.53;4967220;28;20524;-52
2022/02/28 06:35:48;;;;;;;12.17;10.20;;;;;;;-4.72;100.00;98430.72;4915962;28;20490;-48
2022/02/28 06:38:17;;;;;;;10.10;9.10;;;;;;;-4.54;100.00;98439.53;4965753;28;20720;-52
2022/02/28 06:40:46;;;;;;;10.47;9.43;;;;;;;-4.35;100.00;98436.22;4958609;28;20896;-52
2022/02/28 06:43:14;;;;;;;10.83;9.03;;;;;;;-4.34;100.00;98431.91;4931752;28;21193;-49
2022/02/28 06:45:42;;;;;;;11.77;9.93;;;;;;;-4.21;100.00;98443.44;4964412;28;20492;-50
2022/02/28 06:48:11;;;;;;;10.50;9.03;;;;;;;-4.07;100.00;98448.91;4942772;28;20809;-56
2022/02/28 06:50:39;;;;;;;11.33;10.07;;;;;;;-4.16;100.00;98435.50;4966960;28;20460;-50
2022/02/28 06:53:09;;;;;;;11.10;9.40;;;;;;;-4.13;100.00;98450.94;4928286;28;21079;-47
2022/02/28 06:55:40;;;;;;;11.57;10.20;;;;;;;-4.12;100.00;98450.84;4967090;28;20553;-52
2022/02/28 06:58:08;;;;;;;11.80;9.37;;;;;;;-3.97;100.00;98458.94;4943446;28;20209;-51
2022/02/28 07:00:37;;;;;;;13.43;9.60;;;;;;;-3.76;100.00;98454.63;4943592;28;20308;-52
2022/02/28 07:03:07;;;;;;;11.53;10.17;;;;;;;-3.66;100.00;98460.25;4965230;28;20602;-50
2022/02/28 07:05:35;;;;;;;9.87;8.90;;;;;;;-3.58;100.00;98459.94;4965797;28;20764;-50
2022/02/28 07:08:03;;;;;;;11.40;10.20;;;;;;;-3.48;100.00;98463.84;4916926;28;20469;-52
2022/02/28 07:10:33;;;;;;;12.00;9.87;;;;;;;-3.50;100.00;98460.47;4963573;28;20460;-53
2022/02/28 07:13:01;;;;;;;14.90;10.80;;;;;;;-3.40;100.00;98466.13;4942190;28;20540;-50
2022/02/28 07:15:29;;;;;;;12.23;9.57;;;;;;;-3.28;100.00;98467.34;4942475;28;20484;-48
2022/02/28 07:17:59;;;;;;;10.30;8.90;;;;;;;-3.33;100.00;98472.72;4961546;28;20241;-54
2022/02/28 07:20:27;;;;;;;13.70;10.80;;;;;;;-3.26;100.00;98474.13;4967837;28;20911;-52
2022/02/28 07:22:55;;;;;;;11.63;10.33;;;;;;;-3.10;100.00;98470.91;4917556;28;20576;-50
2022/02/28 07:25:23;;;;;;;11.53;9.30;;;;;;;-2.96;100.00;98471.13;4968266;28;20320;-50
2022/02/28 07:27:54;;;;;;;15.67;10.23;;;;;;;-2.98;100.00;98472.94;4962315;28;20617;-49
2022/02/28 07:30:22;;;;;;;10.97;9.40;;;;;;;-2.79;100.00;98461.78;4971112;28;20720;-49
2022/02/28 07:32:51;;;;;;;10.80;9.70;;;;;;;-2.58;100.00;98478.13;4940109;28;20205;-48
2022/02/28 07:35:19;;;;;;;13.23;9.90;;;;;;;-2.38;100.00;98472.03;4965581;28;20234;-52
2022/02/28 07:37:47;;;;;;;9.53;8.40;;;;;;;-2.35;100.00;98479.69;4921214;28;20213;-51
2022/02/28 07:40:18;;;;;;;11.27;9.23;;;;;;;-2.22;100.00;98481.69;4963567;28;20268;-51
2022/02/28 07:42:46;;;;;;;11.67;10.17;;;;;;;-2.17;100.00;98484.91;4964196;28;20612;-50
2022/02/28 07:45:16;;;;;;;11.03;9.73;;;;;;;-2.15;100.00;98483.09;4967011;28;20222;-51
2022/02/28 07:47:44;;;;;;;10.73;9.40;;;;;;;-2.13;100.00;98485.63;4942801;28;20213;-50
2022/02/28 07:50:12;;;;;;;12.30;9.17;;;;;;;-1.92;100.00;98489.78;4963712;28;20324;-51
2022/02/28 07:52:40;;;;;;;10.43;9.43;;;;;;;-1.97;100.00;98496.97;4917504;28;21251;-50
2022/02/28 07:55:09;;;;;;;12.97;9.80;;;;;;;-1.74;100.00;98484.66;4960794;28;20240;-51
2022/02/28 07:57:38;;;;;;;10.77;9.50;;;;;;;-1.64;100.00;98490.25;4961374;28;20371;-52
2022/02/28 08:00:08;;;;;;;12.83;10.43;;;;;;;-1.47;100.00;98492.84;4966553;28;20213;-50
2022/02/28 08:02:37;;;;;;;13.37;10.20;;;;;;;-1.43;100.00;98490.09;4946262;28;20218;-54
2022/02/28 08:05:06;;;;;;;11.80;9.47;;;;;;;-1.29;100.00;98492.88;4965635;28;20237;-48
2022/02/28 08:07:39;;;;;;;10.83;9.30;;;;;;;-0.91;100.00;98502.22;4958990;28;20852;-51
2022/02/28 08:10:08;;;;;;;11.47;9.13;;;;;;;-0.93;100.00;98494.53;4918485;28;20218;-51
2022/02/28 08:12:36;;;;;;;12.07;9.97;;;;;;;-0.90;100.00;98498.69;4960792;28;20401;-49
2022/02/28 08:15:05;;;;;;;12.90;10.73;;;;;;;-0.89;100.00;98495.19;4962123;28;20746;-53
2022/02/28 08:17:33;;;;;;;11.53;9.97;;;;;;;-0.69;100.00;98503.72;4942285;28;20479;-52
2022/02/28 08:20:03;;;;;;;11.43;9.40;;;;;;;-0.35;100.00;98499.34;4965675;28;20296;-51
2022/02/28 08:22:31;;;;;;;13.20;9.40;;;;;;;-0.52;100.00;98516.69;4961469;28;20206;-51
2022/02/28 08:25:00;;;;;;;11.27;9.60;;;;;;;-0.12;100.00;98505.91;4918558;28;20230;-53
2022/02/28 08:27:28;;;;;;;14.30;9.53;;;;;;;0.07;100.00;98504.88;4948560;28;20240;-53
2022/02/28 08:29:56;;;;;;;10.93;9.77;;;;;;;0.18;100.00;98501.69;4965162;28;20205;-48
2022/02/28 08:32:24;;;;;;;11.23;9.83;;;;;;;0.44;100.00;98497.59;4926508;28;20735;-51
2022/02/28 08:34:52;;;;;;;11.43;10.30;;;;;;;0.80;100.00;98506.00;4943406;28;20236;-54
2022/02/28 08:37:21;;;;;;;13.30;9.87;;;;;;;0.68;100.00;98500.56;4945712;28;20218;-53
2022/02/28 08:39:50;;;;;;;11.87;10.67;;;;;;;0.86;100.00;98496.03;4960615;28;20305;-54
2022/02/28 08:42:21;;;;;;;11.93;10.63;;;;;;;0.91;100.00;98494.91;4935240;28;20228;-51
2022/02/28 08:44:49;;;;;;;12.37;10.47;;;;;;;1.47;100.00;98499.44;4964626;28;20593;-49
2022/02/28 08:47:19;;;;;;;12.50;9.77;;;;;;;1.21;100.00;98499.25;4948236;28;20644;-48
2022/02/28 08:49:47;;;;;;;16.13;10.33;;;;;;;1.39;100.00;98498.16;4923517;28;20867;-54
2022/02/28 08:52:15;;;;;;;12.33;10.10;;;;;;;1.28;100.00;98495.34;4966746;28;20205;-52
2022/02/28 08:54:45;;;;;;;12.43;10.23;;;;;;;1.19;100.00;98493.28;4947985;28;20230;-55
2022/02/28 08:57:15;;;;;;;13.97;10.30;;;;;;;1.33;100.00;98495.91;4918577;28;20741;-54
2022/02/28 08:59:43;;;;;;;13.33;9.83;;;;;;;1.47;100.00;98504.69;4961116;28;20488;-53
2022/02/28 09:02:11;;;;;;;11.87;9.93;;;;;;;1.37;100.00;98496.56;4965076;28;20666;-54
2022/02/28 09:04:39;;;;;;;13.50;11.33;;;;;;;1.57;100.00;98492.72;4923399;28;20327;-48
2022/02/28 09:07:08;;;;;;;12.83;10.03;;;;;;;1.93;100.00;98491.38;4965515;28;20317;-49
2022/02/28 09:09:36;;;;;;;14.63;10.63;;;;;;;1.82;100.00;98489.41;4947854;28;20237;-51
2022/02/28 09:12:06;;;;;;;13.17;9.77;;;;;;;1.87;100.00;98492.56;4915475;28;20236;-51
2022/02/28 09:14:36;;;;;;;11.47;10.27;;;;;;;2.15;100.00;98482.16;4960814;28;20233;-51
2022/02/28 09:17:05;;;;;;;13.80;9.87;;;;;;;1.83;100.00;98485.03;4962900;28;20209;-51
2022/02/28 09:19:33;;;;;;;11.40;10.07;;;;;;;2.50;100.00;98479.03;4941066;28;20734;-50
2022/02/28 09:22:02;;;;;;;12.03;10.27;;;;;;;2.20;100.00;98472.25;4945505;28;20217;-55
2022/02/28 09:24:32;;;;;;;11.23;9.00;;;;;;;2.26;100.00;98473.59;4962072;28;20222;-50
2022/02/28 09:27:02;;;;;;;12.70;9.17;;;;;;;2.35;100.00;98466.94;4921462;28;20720;-49
2022/02/28 09:29:32;;;;;;;9.33;8.43;;;;;;;2.80;100.00;98469.25;4963867;28;20225;-52
2022/02/28 09:32:00;;;;;;;11.60;8.57;;;;;;;2.60;100.00;98458.31;4967806;28;20216;-53
2022/02/28 09:34:29;;;;;;;9.17;8.27;;;;;;;2.72;100.00;98457.50;4950107;28;20240;-51
2022/02/28 09:36:57;;;;;;;8.53;7.67;;;;;;;3.00;100.00;98455.63;4948827;28;20630;-49
2022/02/28 09:39:25;;;;;;;9.70;7.43;;;;;;;2.81;100.00;98458.66;4966881;28;20235;-48
2022/02/28 09:41:54;;;;;;;10.17;7.70;;;;;;;2.92;100.00;98460.56;4923179;28;20825;-52
2022/02/28 09:44:22;;;;;;;10.33;7.50;;;;;;;3.08;97.58;98455.09;4962357;28;20221;-50
2022/02/28 09:46:53;;;;;;;9.77;7.87;;;;;;;2.57;100.00;98455.91;4966845;28;20556;-50
2022/02/28 09:49:21;;;;;;;7.37;6.17;;;;;;;2.69;100.00;98456.88;4953379;28;20526;-48
2022/02/28 09:51:49;;;;;;;9.02;8.13;;;;;;;2.74;100.00;98455.63;4943577;28;20725;-51
2022/02/28 09:54:17;;;;;;;7.73;6.93;;;;;;;2.62;100.00;98458.22;4966653;28;20210;-50
2022/02/28 09:56:46;;;;;;;8.30;6.83;;;;;;;2.51;100.00;98453.69;4965027;28;20584;-52
2022/02/28 09:59:14;;;;;;;9.30;6.20;;;;;;;2.57;100.00;98445.44;4924466;28;20714;-49
2022/02/28 10:01:59;;;;;;;6.80;5.70;;;;;;;2.65;100.00;98461.50;4962659;28;20633;-52
2022/02/28 10:04:28;;;;;;;8.60;7.27;;;;;;;2.88;99.03;98457.31;4938364;28;20225;-51
2022/02/28 10:06:59;;;;;;;6.40;5.73;;;;;;;3.04;100.00;98458.88;4965511;28;20473;-51
2022/02/28 10:09:28;;;;;;;6.23;5.63;;;;;;;3.25;92.90;98461.00;4946996;28;20218;-49
2022/02/28 10:11:56;;;;;;;6.47;5.80;;;;;;;3.12;96.53;98461.81;4964964;28;20720;-54
2022/02/28 10:14:27;;;;;;;7.70;6.40;;;;;;;2.66;94.46;98470.16;4918259;28;20697;-51
2022/02/28 10:16:58;;;;;;;10.03;6.50;;;;;;;2.77;92.96;98459.81;4960425;28;20328;-54
2022/02/28 10:19:30;;;;;;;6.03;5.43;;;;;;;2.77;92.14;98459.81;4957530;28;20264;-52
2022/02/28 10:22:01;;;;;;;9.70;6.47;;;;;;;2.81;92.89;98460.44;4958899;28;20301;-50
2022/02/28 10:24:31;;;;;;;6.27;5.60;;;;;;;2.74;92.94;98454.78;4935860;28;20238;-52
2022/02/28 10:27:00;;;;;;;7.43;6.17;;;;;;;2.87;89.69;98457.41;4966073;28;20224;-54
2022/02/28 10:29:30;;;;;;;7.83;6.30;;;;;;;2.98;90.34;98447.03;4936123;28;20230;-52
2022/02/28 10:32:00;;;;;;;7.97;6.23;;;;;;;3.12;89.27;98459.19;4959213;28;20710;-53
2022/02/28 10:34:34;;;;;;;6.60;6.00;;;;;;;3.07;78.79;98455.22;4961545;28;20234;-52
2022/02/28 10:37:04;;;;;;;7.27;5.90;;;;;;;3.07;83.20;98452.63;4951731;28;20221;-52
2022/02/28 10:39:37;;;;;;;6.33;5.73;;;;;;;3.21;86.40;98451.63;4942756;28;20217;-51
2022/02/28 10:42:07;;;;;;;6.57;5.70;;;;;;;3.41;79.87;98458.13;4966388;28;20761;-53
2022/02/28 10:44:36;;;;;;;7.10;6.37;;;;;;;3.16;82.71;98444.94;4920395;28;20731;-56
2022/02/28 10:47:07;;;;;;;7.13;5.63;;;;;;;3.17;82.48;98456.28;4940772;28;20211;-54
2022/02/28 10:49:39;;;;;;;5.87;5.37;;;;;;;3.16;75.42;98458.03;4964425;28;20291;-54
2022/02/28 10:52:09;;;;;;;6.53;5.83;;;;;;;3.09;81.93;98448.09;4936323;28;20754;-52
2022/02/28 10:54:39;;;;;;;6.03;5.43;;;;;;;3.55;75.76;98451.91;4944081;28;20601;-55
2022/02/28 10:57:08;;;;;;;5.80;5.20;;;;;;;3.50;77.51;98449.63;4948887;28;20234;-52
2022/02/28 10:59:41;;;;;;;5.80;5.23;;;;;;;3.76;70.84;98452.16;4964742;28;20206;-49
2022/02/28 11:02:10;;;;;;;6.30;5.13;;;;;;;3.46;63.08;98446.38;4926058;28;20255;-51
2022/02/28 11:04:41;;;;;;;6.37;5.07;;;;;;;3.50;64.81;98441.78;4955451;28;20848;-52
2022/02/28 11:07:13;;;;;;;6.93;6.20;;;;;;;3.67;65.73;98447.59;4952622;28;20736;-52
2022/02/28 11:09:42;;;;;;;6.10;5.50;;;;;;;3.74;62.29;98438.34;4943653;28;20210;-50
2022/02/28 11:12:25;;;;;;;5.53;4.90;;;;;;;4.00;54.39;98435.63;4963248;28;20285;-52
2022/02/28 11:14:55;;;;;;;7.90;5.47;;;;;;;4.11;57.51;98430.44;4964961;28;20253;-51
2022/02/28 11:17:25;;;;;;;5.13;4.67;;;;;;;3.82;58.04;98432.56;4921521;28;20230;-50
2022/02/28 11:19:58;;;;;;;5.40;4.90;;;;;;;3.82;60.23;98436.03;4960646;28;20210;-49
2022/02/28 11:22:30;;;;;;;5.27;4.80;;;;;;;3.87;61.90;98428.66;4942261;28;20253;-54
2022/02/28 11:24:59;;;;;;;7.23;5.00;;;;;;;3.86;57.80;98426.13;4947789;28;20313;-53
2022/02/28 11:27:29;;;;;;;6.53;4.60;;;;;;;3.67;56.09;98419.59;4958031;28;20296;-52
2022/02/28 11:29:59;;;;;;;6.53;4.90;;;;;;;3.97;51.67;98420.13;4964331;28;20324;-54
2022/02/28 11:32:28;;;;;;;5.60;5.10;;;;;;;3.96;49.63;98418.44;4901869;28;20213;-54